createdAt,value
2019-03-16T00:04:24.903Z,69.69
2019-03-16T00:06:54.822Z,70.16
2019-03-16T00:09:25.282Z,70.70
2019-03-16T00:11:55.317Z,70.86
2019-03-16T00:14:25.135Z,71.13
2019-03-16T00:16:55.254Z,71.32
2019-03-16T00:19:25.621Z,71.61
2019-03-16T00:21:55.464Z,71.84
2019-03-16T00:24:25.112Z,72.07
2019-03-16T00:26:55.084Z,72.14
2019-03-16T00:29:24.809Z,72.26
2019-03-16T00:31:55.042Z,72.41
2019-03-16T00:34:24.926Z,72.51
2019-03-16T00:36:57.430Z,72.56
2019-03-16T00:39:27.716Z,72.57
2019-03-16T00:41:57.430Z,72.57
2019-03-16T00:44:27.141Z,72.65
2019-03-16T00:46:56.947Z,72.66
2019-03-16T00:49:27.074Z,72.63
2019-03-16T00:51:56.753Z,72.65
2019-03-16T00:54:26.707Z,72.63
2019-03-16T00:56:56.702Z,72.69
2019-03-16T00:59:27.174Z,72.79
2019-03-16T01:01:57.670Z,72.86
2019-03-16T01:04:27.491Z,72.79
2019-03-16T01:09:36.729Z,72.83
2019-03-16T01:12:06.866Z,72.85
2019-03-16T01:14:36.618Z,72.91
2019-03-16T01:17:06.988Z,72.81
2019-03-16T01:19:36.794Z,72.83
2019-03-16T01:22:06.861Z,72.77
2019-03-16T01:24:36.524Z,72.71
2019-03-16T01:27:06.484Z,72.58
2019-03-16T01:29:36.405Z,72.50
2019-03-16T01:32:06.245Z,72.38
2019-03-16T01:34:36.225Z,72.31
2019-03-16T01:37:06.964Z,72.37
2019-03-16T01:39:36.837Z,72.41
2019-03-16T01:42:07.468Z,72.41
2019-03-16T01:44:37.228Z,72.49
2019-03-16T01:47:07.262Z,72.43
2019-03-16T01:49:37.321Z,72.34
2019-03-16T01:52:06.924Z,72.27
2019-03-16T01:54:37.016Z,72.27
2019-03-16T01:57:06.786Z,72.36
2019-03-16T01:59:36.539Z,72.37
2019-03-16T02:02:06.271Z,72.37
2019-03-16T02:04:36.067Z,72.29
2019-03-16T02:07:06.301Z,72.19
2019-03-16T02:09:36.380Z,72.15
2019-03-16T02:12:06.481Z,72.11
2019-03-16T02:14:36.225Z,72.08
2019-03-16T02:17:06.261Z,72.06
2019-03-16T02:19:36.253Z,72.04
2019-03-16T02:22:06.256Z,71.97
2019-03-16T02:24:36.543Z,71.91
2019-03-16T02:27:06.382Z,71.81
2019-03-16T02:29:36.311Z,71.66
2019-03-16T02:32:06.184Z,71.66
2019-03-16T02:34:36.122Z,71.65
2019-03-16T02:37:05.925Z,71.63
2019-03-16T02:39:35.620Z,71.58
2019-03-16T02:42:05.625Z,71.61
2019-03-16T02:44:35.679Z,71.57
2019-03-16T02:47:05.605Z,71.57
2019-03-16T02:49:35.757Z,71.59
2019-03-16T02:52:05.783Z,71.55
2019-03-16T02:54:36.391Z,71.51
2019-03-16T02:57:06.258Z,71.49
2019-03-16T02:59:36.178Z,71.46
2019-03-16T03:02:06.391Z,71.44
2019-03-16T03:04:36.581Z,71.32
2019-03-16T03:07:06.779Z,71.20
2019-03-16T03:09:37.331Z,71.22
2019-03-16T03:12:07.867Z,71.37
2019-03-16T03:14:38.101Z,71.39
2019-03-16T03:17:08.113Z,71.42
2019-03-16T03:19:38.403Z,71.39
2019-03-16T03:22:08.573Z,71.31
2019-03-16T03:24:38.544Z,71.29
2019-03-16T03:27:08.406Z,71.38
2019-03-16T03:29:38.579Z,71.42
2019-03-16T03:32:09.165Z,71.40
2019-03-16T03:34:38.927Z,71.37
2019-03-16T03:37:08.890Z,71.31
2019-03-16T03:39:39.222Z,71.35
2019-03-16T03:42:09.069Z,71.35
2019-03-16T03:44:38.862Z,71.39
2019-03-16T03:47:09.111Z,71.37
2019-03-16T03:49:39.048Z,71.28
2019-03-16T03:52:09.434Z,71.22
2019-03-16T03:54:39.570Z,71.23
2019-03-16T03:57:10.278Z,71.23
2019-03-16T03:59:40.717Z,71.22
2019-03-16T04:02:10.904Z,71.29
2019-03-16T04:04:41.355Z,71.33
2019-03-16T04:07:11.356Z,71.32
2019-03-16T04:09:41.212Z,71.26
2019-03-16T04:12:11.173Z,71.22
2019-03-16T04:14:41.311Z,71.21
2019-03-16T04:17:11.823Z,71.27
2019-03-16T04:19:41.791Z,71.32
2019-03-16T04:22:11.652Z,71.35
2019-03-16T04:24:45.143Z,71.35
2019-03-16T04:27:16.360Z,71.34
2019-03-16T04:29:45.970Z,71.33
2019-03-16T04:32:15.674Z,71.27
2019-03-16T04:34:45.489Z,71.35
2019-03-16T04:37:15.485Z,71.38
2019-03-16T04:39:45.620Z,71.39
2019-03-16T04:42:15.411Z,71.35
2019-03-16T04:44:45.490Z,71.36
2019-03-16T04:47:15.588Z,71.40
2019-03-16T04:49:45.444Z,71.37
2019-03-16T04:52:16.094Z,71.31
2019-03-16T04:54:46.393Z,71.31
2019-03-16T04:57:16.713Z,71.35
2019-03-16T04:59:46.986Z,71.55
2019-03-16T05:02:16.883Z,71.65
2019-03-16T05:04:47.951Z,71.73
2019-03-16T05:07:18.206Z,71.74
2019-03-16T05:09:48.242Z,71.79
2019-03-16T05:12:18.196Z,71.85
2019-03-16T05:14:48.505Z,71.97
2019-03-16T05:17:18.438Z,72.03
2019-03-16T05:19:48.493Z,72.07
2019-03-16T05:22:18.629Z,72.03
2019-03-16T05:24:49.093Z,71.97
2019-03-16T05:27:19.014Z,71.97
2019-03-16T05:29:49.630Z,71.98
2019-03-16T05:32:19.634Z,71.97
2019-03-16T05:34:56.294Z,71.96
2019-03-16T05:37:21.861Z,71.92
2019-03-16T05:39:51.792Z,71.89
2019-03-16T05:42:22.582Z,71.90
2019-03-16T05:44:52.603Z,71.89
2019-03-16T05:47:22.899Z,71.91
2019-03-16T05:49:52.798Z,71.89
2019-03-16T05:52:23.256Z,71.83
2019-03-16T05:54:53.097Z,71.83
2019-03-16T05:57:24.503Z,71.75
2019-03-16T05:59:54.818Z,71.75
2019-03-16T06:02:24.711Z,71.74
2019-03-16T06:04:54.829Z,71.72
2019-03-16T06:07:24.926Z,71.74
2019-03-16T06:09:54.991Z,71.78
2019-03-16T06:12:25.262Z,71.86
2019-03-16T06:14:55.524Z,71.80
2019-03-16T06:17:25.555Z,71.71
2019-03-16T06:19:55.590Z,71.69
2019-03-16T06:22:25.808Z,71.70
2019-03-16T06:24:55.973Z,71.74
2019-03-16T06:27:26.079Z,71.84
2019-03-16T06:29:56.420Z,71.82
2019-03-16T06:32:26.919Z,71.72
2019-03-16T06:34:56.970Z,71.58
2019-03-16T06:37:27.154Z,71.46
2019-03-16T06:39:57.528Z,71.41
2019-03-16T06:42:28.100Z,71.45
2019-03-16T06:44:58.288Z,71.33
2019-03-16T06:47:28.525Z,71.14
2019-03-16T06:49:58.604Z,70.80
2019-03-16T06:52:28.907Z,70.68
2019-03-16T06:54:59.884Z,70.53
2019-03-16T06:57:30.003Z,70.40
2019-03-16T07:00:00.811Z,70.28
2019-03-16T07:02:31.315Z,70.15
2019-03-16T07:05:01.785Z,69.82
2019-03-16T07:07:32.220Z,69.79
2019-03-16T07:10:02.572Z,69.67
2019-03-16T07:12:34.827Z,69.49
2019-03-16T07:15:04.826Z,69.43
2019-03-16T07:17:34.987Z,69.30
2019-03-16T07:20:05.591Z,69.21
2019-03-16T07:22:36.020Z,68.93
2019-03-16T07:25:05.917Z,68.63
2019-03-16T07:27:35.838Z,68.45
2019-03-16T07:30:05.830Z,68.01
2019-03-16T07:32:36.160Z,68.02
2019-03-16T07:35:06.601Z,67.85
2019-03-16T07:37:36.739Z,67.75
2019-03-16T07:40:07.389Z,67.57
2019-03-16T07:42:37.794Z,67.33
2019-03-16T07:45:09.025Z,67.36
2019-03-16T07:47:39.475Z,67.32
2019-03-16T07:50:10.332Z,67.24
2019-03-16T07:52:40.206Z,67.13
2019-03-16T07:55:10.466Z,66.92
2019-03-16T07:57:41.110Z,66.95
2019-03-16T08:00:11.504Z,66.64
2019-03-16T08:02:41.553Z,66.31
2019-03-16T08:05:18.292Z,66.17
2019-03-16T08:07:43.398Z,66.10
2019-03-16T08:10:13.505Z,66.14
2019-03-16T08:12:43.729Z,66.06
2019-03-16T08:15:14.129Z,65.95
2019-03-16T08:17:44.396Z,65.75
2019-03-16T08:20:14.824Z,65.53
2019-03-16T08:22:45.142Z,65.44
2019-03-16T08:25:15.597Z,65.15
2019-03-16T08:27:54.127Z,64.85
2019-03-16T08:30:18.116Z,64.73
2019-03-16T08:32:48.125Z,64.51
2019-03-16T08:35:18.767Z,64.21
2019-03-16T08:37:49.220Z,63.78
2019-03-16T08:40:19.695Z,63.91
2019-03-16T08:42:51.476Z,64.04
2019-03-16T08:45:24.417Z,64.01
2019-03-16T08:47:54.688Z,63.82
2019-03-16T08:50:24.823Z,63.78
2019-03-16T08:52:55.491Z,63.55
2019-03-16T08:55:25.593Z,63.22
2019-03-16T08:58:06.022Z,63.29
2019-03-16T09:00:31.231Z,63.26
2019-03-16T09:03:01.348Z,63.02
2019-03-16T09:05:32.328Z,62.75
2019-03-16T09:08:02.675Z,62.64
2019-03-16T09:10:33.460Z,62.49
2019-03-16T09:13:03.794Z,61.98
2019-03-16T09:15:33.934Z,61.72
2019-03-16T09:18:04.326Z,61.74
2019-03-16T09:20:34.498Z,61.44
2019-03-16T09:23:04.502Z,60.83
2019-03-16T09:25:34.499Z,60.64
2019-03-16T09:28:14.016Z,60.85
2019-03-16T09:30:36.981Z,60.79
2019-03-16T09:33:07.149Z,60.74
2019-03-16T09:35:37.112Z,60.83
2019-03-16T09:38:07.121Z,60.63
2019-03-16T09:40:37.165Z,60.45
2019-03-16T09:43:07.376Z,60.27
2019-03-16T09:45:37.737Z,60.19
2019-03-16T09:48:07.547Z,59.96
2019-03-16T09:50:37.675Z,59.62
2019-03-16T09:53:07.779Z,59.60
2019-03-16T09:55:37.572Z,59.75
2019-03-16T09:58:08.129Z,59.54
2019-03-16T10:00:38.318Z,59.46
2019-03-16T10:03:08.224Z,59.42
2019-03-16T10:05:38.650Z,59.33
2019-03-16T10:08:08.640Z,59.55
2019-03-16T10:10:38.440Z,59.69
2019-03-16T10:13:09.398Z,59.66
2019-03-16T10:15:39.461Z,59.72
2019-03-16T10:18:09.358Z,59.79
2019-03-16T10:20:39.984Z,59.55
2019-03-16T10:23:10.786Z,59.51
2019-03-16T10:25:42.108Z,59.41
2019-03-16T10:28:13.667Z,59.29
2019-03-16T10:30:43.675Z,59.04
2019-03-16T10:33:14.043Z,58.84
2019-03-16T10:35:44.059Z,58.37
2019-03-16T10:38:13.962Z,58.23
2019-03-16T10:40:44.179Z,58.25
2019-03-16T10:43:14.030Z,58.38
2019-03-16T10:45:44.399Z,58.42
2019-03-16T10:48:14.402Z,58.65
2019-03-16T10:50:44.842Z,58.83
2019-03-16T10:53:14.969Z,58.80
2019-03-16T10:55:44.940Z,58.93
2019-03-16T10:58:15.083Z,59.03
2019-03-16T11:00:45.140Z,59.04
2019-03-16T11:03:15.399Z,59.32
2019-03-16T11:05:46.136Z,59.35
2019-03-16T11:08:17.081Z,59.46
2019-03-16T11:10:47.297Z,59.68
2019-03-16T11:13:17.462Z,59.68
2019-03-16T11:15:47.491Z,59.77
2019-03-16T11:18:18.045Z,60.05
2019-03-16T11:20:48.757Z,60.25
2019-03-16T11:23:19.261Z,60.32
2019-03-16T11:25:49.523Z,60.38
2019-03-16T11:28:19.651Z,60.46
2019-03-16T11:30:49.804Z,60.63
2019-03-16T11:33:19.570Z,60.60
2019-03-16T11:35:52.446Z,60.75
2019-03-16T11:38:22.371Z,60.87
2019-03-16T11:40:52.429Z,60.89
2019-03-16T11:43:22.529Z,60.78
2019-03-16T11:45:53.355Z,60.87
2019-03-16T11:48:23.350Z,60.93
2019-03-16T11:50:53.253Z,61.00
2019-03-16T11:53:23.269Z,61.62
2019-03-16T11:55:54.590Z,62.09
2019-03-16T11:58:24.975Z,62.08
2019-03-16T12:00:54.854Z,61.79
2019-03-16T12:03:24.983Z,61.65
2019-03-16T12:05:55.897Z,61.59
2019-03-16T12:08:25.854Z,61.71
2019-03-16T12:10:56.274Z,61.92
2019-03-16T12:13:26.526Z,61.83
2019-03-16T12:15:56.379Z,61.76
2019-03-16T12:18:26.695Z,61.61
2019-03-16T12:20:56.642Z,61.58
2019-03-16T12:23:26.703Z,61.72
2019-03-16T12:25:56.452Z,61.87
2019-03-16T12:28:26.600Z,62.01
2019-03-16T12:30:56.478Z,61.99
2019-03-16T12:33:26.378Z,61.93
2019-03-16T12:35:56.667Z,62.08
2019-03-16T12:38:26.466Z,62.19
2019-03-16T12:40:57.742Z,62.26
2019-03-16T12:43:28.001Z,62.00
2019-03-16T12:45:57.860Z,61.84
2019-03-16T12:48:28.093Z,61.87
2019-03-16T12:50:58.255Z,61.86
2019-03-16T12:53:29.254Z,61.79
2019-03-16T12:55:59.536Z,61.68
2019-03-16T12:58:29.745Z,61.71
2019-03-16T13:00:59.814Z,61.65
2019-03-16T13:03:30.030Z,61.65
2019-03-16T13:06:00.177Z,61.78
2019-03-16T13:08:30.335Z,61.73
2019-03-16T13:11:00.607Z,61.88
2019-03-16T13:13:30.668Z,61.93
2019-03-16T13:16:00.604Z,61.96
2019-03-16T13:18:31.310Z,62.02
2019-03-16T13:21:01.730Z,62.12
2019-03-16T13:23:32.530Z,62.34
2019-03-16T13:26:02.373Z,62.45
2019-03-16T13:28:35.526Z,62.52
2019-03-16T13:31:05.320Z,62.68
2019-03-16T13:33:35.919Z,62.75
2019-03-16T13:36:06.737Z,62.77
2019-03-16T13:38:36.675Z,62.73
2019-03-16T13:41:06.864Z,62.84
2019-03-16T13:43:37.058Z,62.90
2019-03-16T13:46:09.223Z,62.88
2019-03-16T13:48:39.381Z,62.91
2019-03-16T13:51:09.320Z,62.86
2019-03-16T13:53:39.396Z,63.01
2019-03-16T13:56:09.598Z,63.06
2019-03-16T13:58:40.880Z,63.11
2019-03-16T14:01:11.073Z,63.11
2019-03-16T14:03:41.167Z,63.12
2019-03-16T14:06:11.676Z,63.13
2019-03-16T14:08:42.417Z,63.10
2019-03-16T14:11:15.520Z,63.13
2019-03-16T14:13:46.569Z,63.15
2019-03-16T14:16:20.146Z,63.06
2019-03-16T14:18:53.757Z,62.95
2019-03-16T14:21:24.684Z,62.96
2019-03-16T14:23:57.917Z,63.06
2019-03-16T14:26:27.953Z,63.09
2019-03-16T14:28:57.944Z,63.07
2019-03-16T14:31:28.089Z,62.96
2019-03-16T14:33:58.062Z,62.97
2019-03-16T14:36:27.930Z,62.89
2019-03-16T14:38:58.184Z,62.93
2019-03-16T14:41:28.601Z,62.92
2019-03-16T14:43:59.148Z,62.90
2019-03-16T14:46:29.091Z,62.91
2019-03-16T14:49:00.647Z,62.90
2019-03-16T14:51:30.806Z,62.88
2019-03-16T14:54:01.010Z,62.98
2019-03-16T14:56:31.229Z,63.14
2019-03-16T14:59:01.288Z,63.22
2019-03-16T15:01:31.234Z,63.26
2019-03-16T15:04:01.096Z,63.30
2019-03-16T15:06:31.103Z,63.29
2019-03-16T15:09:00.861Z,63.46
2019-03-16T15:11:30.658Z,63.61
2019-03-16T15:14:01.868Z,63.75
2019-03-16T15:16:31.780Z,63.90
2019-03-16T15:19:01.722Z,63.99
2019-03-16T15:21:32.020Z,64.25
2019-03-16T15:24:02.112Z,64.28
2019-03-16T15:26:32.199Z,64.26
2019-03-16T15:29:02.409Z,64.33
2019-03-16T15:31:32.728Z,64.37
2019-03-16T15:34:03.289Z,64.37
2019-03-16T15:36:33.454Z,64.52
2019-03-16T15:39:05.489Z,64.58
2019-03-16T15:41:35.389Z,64.76
2019-03-16T15:44:05.623Z,64.91
2019-03-16T15:46:35.563Z,65.02
2019-03-16T15:49:05.829Z,65.19
2019-03-16T15:51:35.807Z,65.26
2019-03-16T15:54:05.913Z,65.34
2019-03-16T15:56:35.826Z,65.42
2019-03-16T15:59:05.627Z,65.49
2019-03-16T16:01:35.805Z,65.51
2019-03-16T16:04:05.918Z,65.61
2019-03-16T16:06:35.730Z,65.63
2019-03-16T16:09:06.380Z,65.59
2019-03-16T16:11:36.180Z,65.59
2019-03-16T16:14:06.378Z,65.62
2019-03-16T16:16:36.588Z,65.57
2019-03-16T16:19:06.503Z,65.55
2019-03-16T16:21:36.641Z,65.61
2019-03-16T16:24:06.743Z,65.61
2019-03-16T16:26:36.714Z,65.61
2019-03-16T16:29:06.974Z,65.60
2019-03-16T16:31:36.813Z,65.65
2019-03-16T16:34:06.999Z,65.72
2019-03-16T16:36:37.047Z,65.81
2019-03-16T16:39:07.425Z,65.73
2019-03-16T16:41:37.378Z,65.67
2019-03-16T16:44:07.523Z,65.61
2019-03-16T16:46:37.669Z,65.57
2019-03-16T16:49:07.529Z,65.56
2019-03-16T16:51:37.679Z,65.52
2019-03-16T16:54:07.806Z,65.41
2019-03-16T16:56:37.691Z,65.53
2019-03-16T16:59:08.144Z,65.86
2019-03-16T17:01:37.964Z,66.11
2019-03-16T17:04:07.918Z,66.46
2019-03-16T17:06:38.024Z,66.74
2019-03-16T17:09:08.334Z,66.93
2019-03-16T17:11:38.524Z,67.21
2019-03-16T17:14:08.521Z,67.56
2019-03-16T17:16:38.583Z,68.06
2019-03-16T17:19:08.587Z,68.39
2019-03-16T17:21:38.536Z,68.61
2019-03-16T17:24:09.355Z,68.82
2019-03-16T17:26:39.489Z,68.83
2019-03-16T17:29:09.354Z,68.79
2019-03-16T17:31:42.545Z,68.75
2019-03-16T17:34:11.441Z,68.75
2019-03-16T17:36:41.398Z,68.83
2019-03-16T17:39:11.336Z,68.89
2019-03-16T17:41:41.160Z,68.95
2019-03-16T17:44:11.050Z,69.09
2019-03-16T17:46:41.117Z,69.13
2019-03-16T17:49:11.053Z,69.11
2019-03-16T17:51:40.843Z,69.09
2019-03-16T17:54:10.959Z,69.10
2019-03-16T17:56:40.674Z,69.08
2019-03-16T17:59:11.674Z,69.11
2019-03-16T18:01:53.975Z,69.14
2019-03-16T18:04:13.626Z,69.18
2019-03-16T18:06:43.656Z,69.18
2019-03-16T18:09:13.386Z,69.34
2019-03-16T18:11:44.252Z,69.54
2019-03-16T18:14:14.574Z,69.62
2019-03-16T18:16:44.765Z,69.62
2019-03-16T18:19:14.633Z,69.80
2019-03-16T18:21:44.868Z,69.93
2019-03-16T18:24:14.980Z,69.95
2019-03-16T18:26:45.259Z,69.96
2019-03-16T18:29:16.135Z,70.01
2019-03-16T18:31:46.315Z,70.21
2019-03-16T18:34:16.562Z,70.40
2019-03-16T18:36:46.517Z,70.51
2019-03-16T18:39:16.570Z,70.55
2019-03-16T18:41:46.634Z,70.55
2019-03-16T18:44:16.814Z,70.50
2019-03-16T18:46:47.653Z,70.50
2019-03-16T18:49:17.588Z,70.52
2019-03-16T18:51:47.886Z,70.55
2019-03-16T18:54:18.118Z,70.72
2019-03-16T18:56:48.140Z,70.69
2019-03-16T18:59:18.558Z,70.83
2019-03-16T19:01:49.025Z,70.91
2019-03-16T19:04:19.012Z,70.98
2019-03-16T19:06:49.266Z,71.12
2019-03-16T19:09:19.408Z,71.18
2019-03-16T19:11:49.530Z,71.35
2019-03-16T19:14:19.573Z,71.56
2019-03-16T19:16:49.841Z,71.76
2019-03-16T19:19:20.039Z,71.85
2019-03-16T19:21:50.049Z,72.27
2019-03-16T19:24:20.054Z,72.56
2019-03-16T19:26:49.944Z,72.59
2019-03-16T19:29:20.776Z,72.75
2019-03-16T19:31:51.472Z,72.93
2019-03-16T19:34:21.449Z,72.96
2019-03-16T19:36:51.702Z,72.84
2019-03-16T19:39:21.430Z,72.71
2019-03-16T19:41:53.875Z,72.74
2019-03-16T19:44:24.065Z,72.70
2019-03-16T19:46:54.177Z,72.62
2019-03-16T19:49:24.150Z,72.67
2019-03-16T19:51:54.075Z,72.65
2019-03-16T19:54:23.999Z,72.65
2019-03-16T19:56:54.009Z,72.72
2019-03-16T19:59:24.295Z,72.70
2019-03-16T20:01:54.001Z,72.60
2019-03-16T20:04:35.462Z,72.54
2019-03-16T20:06:55.889Z,72.64
2019-03-16T20:09:26.012Z,72.75
2019-03-16T20:11:56.508Z,72.76
2019-03-16T20:14:26.343Z,72.79
2019-03-16T20:16:56.464Z,72.92
2019-03-16T20:19:26.646Z,73.13
2019-03-16T20:21:56.806Z,73.05
2019-03-16T20:24:26.931Z,72.90
2019-03-16T20:26:56.981Z,72.74
2019-03-16T20:29:27.218Z,72.64
2019-03-16T20:31:57.317Z,72.57
2019-03-16T20:34:27.195Z,72.63
2019-03-16T20:36:58.324Z,72.76
2019-03-16T20:39:28.552Z,72.73
2019-03-16T20:41:58.499Z,72.53
2019-03-16T20:44:28.789Z,72.23
2019-03-16T20:46:59.046Z,72.03
2019-03-16T20:49:29.107Z,71.80
2019-03-16T20:51:59.250Z,71.64
2019-03-16T20:54:29.311Z,71.57
2019-03-16T20:56:59.012Z,71.46
2019-03-16T20:59:28.789Z,71.38
2019-03-16T21:01:58.827Z,71.27
2019-03-16T21:04:28.598Z,71.19
2019-03-16T21:06:58.380Z,71.11
2019-03-16T21:09:28.133Z,71.02
2019-03-16T21:11:59.569Z,70.88
2019-03-16T21:14:29.529Z,70.77
2019-03-16T21:16:59.411Z,70.72
2019-03-16T21:19:29.270Z,70.63
2019-03-16T21:21:59.836Z,70.50
2019-03-16T21:24:29.611Z,70.42
2019-03-16T21:26:59.529Z,70.32
2019-03-16T21:29:29.518Z,70.23
2019-03-16T21:31:59.930Z,70.20
2019-03-16T21:34:29.832Z,70.12
2019-03-16T21:37:00.038Z,70.04
2019-03-16T21:39:29.985Z,69.93
2019-03-16T21:41:59.820Z,69.89
2019-03-16T21:44:29.809Z,69.77
2019-03-16T21:46:59.892Z,69.75
2019-03-16T21:49:29.822Z,69.73
2019-03-16T21:52:02.631Z,69.72
2019-03-16T21:54:31.847Z,69.69
2019-03-16T21:57:02.368Z,69.62
2019-03-16T21:59:32.421Z,69.62
2019-03-16T22:02:02.526Z,69.57
2019-03-16T22:04:32.549Z,69.53
2019-03-16T22:07:02.590Z,69.48
2019-03-16T22:09:32.741Z,69.48
2019-03-16T22:12:02.730Z,69.47
2019-03-16T22:14:33.035Z,69.52
2019-03-16T22:17:02.844Z,69.45
2019-03-16T22:19:32.811Z,69.49
2019-03-16T22:22:02.981Z,69.44
2019-03-16T22:24:32.741Z,69.45
2019-03-16T22:27:02.708Z,69.45
2019-03-16T22:29:32.514Z,69.47
2019-03-16T22:32:02.483Z,69.44
2019-03-16T22:34:32.354Z,69.42
2019-03-16T22:37:02.343Z,69.38
2019-03-16T22:39:32.176Z,69.32
2019-03-16T22:42:02.027Z,69.26
2019-03-16T22:44:31.626Z,69.20
2019-03-16T22:47:01.594Z,69.12
2019-03-16T22:49:31.668Z,69.13
2019-03-16T22:52:01.636Z,69.14
2019-03-16T22:54:31.352Z,69.15
2019-03-16T22:57:01.209Z,68.98
2019-03-16T22:59:30.896Z,68.94
2019-03-16T23:02:00.751Z,68.90
2019-03-16T23:04:30.679Z,68.87
2019-03-16T23:07:00.476Z,68.84
2019-03-16T23:09:30.443Z,68.86
2019-03-16T23:12:00.315Z,68.81
2019-03-16T23:14:30.440Z,68.73
2019-03-16T23:17:00.048Z,68.54
2019-03-16T23:19:29.734Z,68.48
2019-03-16T23:21:59.633Z,68.43
2019-03-16T23:24:29.545Z,68.37
2019-03-16T23:26:59.523Z,68.36
2019-03-16T23:29:29.392Z,68.36
2019-03-16T23:31:59.168Z,68.28
2019-03-16T23:34:28.914Z,68.20
2019-03-16T23:36:58.788Z,68.23
2019-03-16T23:39:28.608Z,68.20
2019-03-16T23:41:58.357Z,68.14
2019-03-16T23:44:28.229Z,68.16
2019-03-16T23:46:58.312Z,68.13
2019-03-16T23:49:28.258Z,68.11
2019-03-16T23:51:58.177Z,68.06
2019-03-16T23:54:28.077Z,68.08
2019-03-16T23:56:57.884Z,68.11
2019-03-16T23:59:27.697Z,68.10
